KSAA/SAA METAR and TAF weather

Enter ICAO airport designator
Station Type Date Time Source
KSAA METAR 2023/02/05 22:35 UTC NOAA

KSAA 052235Z AUTO 21015KT 10SM CLR 03/M05 A2982 RMK AO2


Station Type Date Time Source
KSAA Decoded METAR 2023/02/05 22:35 UTC NOAA

Station name not available
Feb 05, 2023 - 05:35 PM EST / 2023.02.05 2235 UTC
Wind: from the SSW (210 degrees) at 17 MPH (15 KT):0
Visibility: 10 mile(s):0
Sky conditions: clear
Temperature: 37 F (3 C)
Dew Point: 23 F (-5 C)
Relative Humidity: 55%
Pressure (altimeter): 29.82 in. Hg (1009 hPa)
ob: KSAA 052235Z AUTO 21015KT 10SM CLR 03/M05 A2982 RMK AO2
cycle: 22

Station Type Date Time Source
KSAA TAF UTC NOAA

Error!

Example: see airport list